Time;durP1;ratioP1;P1;durP2;ratioP2;P2;SDS_P1;SDS_P2;PMS_P1;PMS_P2;Temp;Humidity;BMP_temperature;BMP_pressure;BME280_temperature;BME280_humidity;BME280_pressure;Samples;Min_cycle;Max_cycle;Signal;HPM_P1;HPM_P2
2023/04/15 00:02:20;;;;;;;;;;;;;;;6.76;72.72;96950.66;5066187;28;19928;-57
2023/04/15 00:04:48;;;;;;;;;;;;;;;6.63;73.15;96952.34;5083985;28;19982;-57
2023/04/15 00:07:16;;;;;;;;;;;;;;;6.63;73.23;96957.75;5068812;28;20386;-58
2023/04/15 00:09:48;;;;;;;;;;;;;;;6.64;73.36;96942.34;5070994;28;19928;-57
2023/04/15 00:12:17;;;;;;;;;;;;;;;6.64;73.37;96943.16;5075428;28;19929;-57
2023/04/15 00:14:45;;;;;;;;;;;;;;;6.69;73.29;96953.81;5066544;28;19928;-59
2023/04/15 00:17:13;;;;;;;;;;;;;;;6.73;72.91;96949.41;5068056;28;20370;-56
2023/04/15 00:19:40;;;;;;;;;;;;;;;6.75;72.97;96952.56;5071025;28;19924;-56
2023/04/15 00:22:08;;;;;;;;;;;;;;;6.78;72.76;96943.06;5071589;28;19932;-56
2023/04/15 00:24:38;;;;;;;;;;;;;;;6.66;72.99;96940.97;5065907;28;19928;-56
2023/04/15 00:27:07;;;;;;;;;;;;;;;6.82;72.33;96941.34;5071230;28;20386;-57
2023/04/15 00:29:35;;;;;;;;;;;;;;;6.73;72.75;96935.91;5069840;28;19928;-59
2023/04/15 00:32:03;;;;;;;;;;;;;;;6.73;72.51;96930.50;5067779;28;19925;-56
2023/04/15 00:34:31;;;;;;;;;;;;;;;6.67;72.71;96926.34;5044185;28;19925;-57
2023/04/15 00:36:59;;;;;;;;;;;;;;;6.63;72.90;96932.66;5061123;28;19991;-57
2023/04/15 00:39:27;;;;;;;;;;;;;;;6.64;72.70;96926.16;5066806;28;19925;-57
2023/04/15 00:41:56;;;;;;;;;;;;;;;6.70;72.55;96928.41;5062732;28;19932;-56
2023/04/15 00:44:26;;;;;;;;;;;;;;;6.73;72.25;96919.72;5059544;28;19932;-57
2023/04/15 00:46:54;;;;;;;;;;;;;;;6.75;72.83;96922.88;5055153;28;19947;-56
2023/04/15 00:49:22;;;;;;;;;;;;;;;6.73;72.54;96924.31;5068005;28;19933;-57
2023/04/15 00:51:51;;;;;;;;;;;;;;;6.70;72.38;96923.00;5061634;28;19928;-56
2023/04/15 00:54:18;;;;;;;;;;;;;;;6.59;72.58;96921.69;5080829;28;19928;-59
2023/04/15 00:56:46;;;;;;;;;;;;;;;6.64;72.43;96915.38;5067170;28;19935;-56
2023/04/15 00:59:14;;;;;;;;;;;;;;;6.78;72.23;96918.78;5067656;28;19925;-56
2023/04/15 01:01:43;;;;;;;;;;;;;;;6.64;72.11;96909.97;5060701;28;20401;-59
2023/04/15 01:04:11;;;;;;;;;;;;;;;6.71;72.15;96915.72;5069192;28;19931;-57
2023/04/15 01:06:39;;;;;;;;;;;;;;;6.59;72.45;96902.78;5061012;28;19941;-56
2023/04/15 01:09:07;;;;;;;;;;;;;;;6.51;72.58;96906.25;5065435;28;19924;-62
2023/04/15 01:11:35;;;;;;;;;;;;;;;6.50;72.70;96910.06;5047412;28;19928;-56
2023/04/15 01:14:03;;;;;;;;;;;;;;;6.48;72.89;96907.66;5060478;28;19924;-56
2023/04/15 01:16:31;;;;;;;;;;;;;;;6.47;73.27;96910.69;5065468;28;19925;-56
2023/04/15 01:19:01;;;;;;;;;;;;;;;6.59;72.82;96912.81;5072602;28;19936;-57
2023/04/15 01:21:29;;;;;;;;;;;;;;;6.46;72.93;96911.78;5067043;28;19979;-57
2023/04/15 01:23:57;;;;;;;;;;;;;;;6.45;73.25;96904.81;5067363;28;19924;-57
2023/04/15 01:26:26;;;;;;;;;;;;;;;6.47;72.92;96903.38;5072275;28;20281;-56
2023/04/15 01:28:55;;;;;;;;;;;;;;;6.57;72.77;96905.03;5059167;28;19925;-57
2023/04/15 01:31:23;;;;;;;;;;;;;;;6.65;72.13;96901.56;5072356;28;19978;-59
2023/04/15 01:33:51;;;;;;;;;;;;;;;6.71;71.92;96903.03;5087165;28;19929;-63
2023/04/15 01:36:22;;;;;;;;;;;;;;;6.62;72.02;96904.88;5068453;28;19931;-57
2023/04/15 01:38:53;;;;;;;;;;;;;;;6.56;72.34;96896.13;5072201;28;20309;-58
2023/04/15 01:41:22;;;;;;;;;;;;;;;6.59;72.75;96897.41;5072083;28;19963;-56
2023/04/15 01:43:54;;;;;;;;;;;;;;;6.66;72.52;96892.38;5059490;28;19933;-63
2023/04/15 01:46:22;;;;;;;;;;;;;;;6.57;72.39;96891.53;5063680;28;19925;-57
2023/04/15 01:48:50;;;;;;;;;;;;;;;6.61;72.70;96897.13;5066542;28;19936;-56
2023/04/15 01:51:18;;;;;;;;;;;;;;;6.66;71.99;96891.56;5068723;28;19932;-57
2023/04/15 01:53:46;;;;;;;;;;;;;;;6.52;72.88;96897.06;5061430;28;20353;-57
2023/04/15 01:56:14;;;;;;;;;;;;;;;6.44;73.18;96893.19;5038179;28;20382;-58
2023/04/15 01:58:43;;;;;;;;;;;;;;;6.36;73.57;96883.16;5031233;28;19940;-56
2023/04/15 02:01:13;;;;;;;;;;;;;;;6.46;73.23;96887.50;5026177;28;20424;-57
2023/04/15 02:03:42;;;;;;;;;;;;;;;6.47;73.18;96889.09;5050970;28;20325;-62
2023/04/15 02:06:10;;;;;;;;;;;;;;;6.47;73.06;96881.78;5046565;28;19936;-57
2023/04/15 02:08:38;;;;;;;;;;;;;;;6.46;73.09;96880.19;5036641;28;19956;-57
2023/04/15 02:11:07;;;;;;;;;;;;;;;6.46;73.13;96884.81;5026824;28;19924;-56
2023/04/15 02:13:35;;;;;;;;;;;;;;;6.44;73.38;96885.09;5056813;28;19931;-59
2023/04/15 02:16:03;;;;;;;;;;;;;;;6.30;73.85;96881.69;5041949;28;19961;-56
2023/04/15 02:18:32;;;;;;;;;;;;;;;6.27;74.27;96880.41;5051425;28;19928;-57
2023/04/15 02:21:00;;;;;;;;;;;;;;;6.30;74.04;96887.09;5044594;28;19929;-57
2023/04/15 02:23:29;;;;;;;;;;;;;;;6.36;74.17;96882.38;5050632;28;19951;-56
2023/04/15 02:25:56;;;;;;;;;;;;;;;6.33;74.50;96883.75;5033988;28;19925;-60
2023/04/15 02:28:24;;;;;;;;;;;;;;;6.32;74.26;96884.88;5039075;28;19932;-57
2023/04/15 02:30:53;;;;;;;;;;;;;;;6.33;73.88;96891.06;5048829;28;20320;-57
2023/04/15 02:33:22;;;;;;;;;;;;;;;6.36;74.21;96887.75;5058309;28;19924;-56
2023/04/15 02:35:52;;;;;;;;;;;;;;;6.43;73.91;96883.50;5029303;28;19929;-57
2023/04/15 02:38:20;;;;;;;;;;;;;;;6.45;73.85;96885.91;5038648;28;19932;-57
2023/04/15 02:40:49;;;;;;;;;;;;;;;6.46;73.66;96890.19;5039391;28;20662;-56
2023/04/15 02:43:17;;;;;;;;;;;;;;;6.44;73.56;96884.31;5057291;28;20341;-60
2023/04/15 02:45:45;;;;;;;;;;;;;;;6.42;73.53;96884.63;5046954;28;19971;-58
2023/04/15 02:48:15;;;;;;;;;;;;;;;6.37;73.75;96887.44;5047846;28;19925;-57
2023/04/15 02:50:43;;;;;;;;;;;;;;;6.34;74.13;96888.06;5032122;28;19971;-57
2023/04/15 02:53:14;;;;;;;;;;;;;;;6.40;74.25;96883.34;5044617;28;19982;-57
2023/04/15 02:55:42;;;;;;;;;;;;;;;6.50;73.62;96888.47;5069770;28;19924;-56
2023/04/15 02:58:10;;;;;;;;;;;;;;;6.51;73.43;96890.88;5064520;28;19955;-57
2023/04/15 03:00:38;;;;;;;;;;;;;;;6.50;73.60;96891.97;5066849;28;19936;-57
2023/04/15 03:03:09;;;;;;;;;;;;;;;6.47;73.26;96884.50;5066422;28;19948;-56
2023/04/15 03:05:38;;;;;;;;;;;;;;;6.49;73.30;96890.34;5068820;28;19972;-56
2023/04/15 03:08:08;;;;;;;;;;;;;;;6.40;73.57;96891.44;5070144;28;20450;-57
2023/04/15 03:10:37;;;;;;;;;;;;;;;6.44;73.78;96882.41;5069757;28;19952;-57
2023/04/15 03:13:05;;;;;;;;;;;;;;;6.30;74.16;96879.78;5065689;28;19924;-58
2023/04/15 03:15:36;;;;;;;;;;;;;;;6.46;73.78;96885.59;5066909;28;20320;-56
2023/04/15 03:18:05;;;;;;;;;;;;;;;6.35;73.96;96883.47;5066596;28;20015;-56
2023/04/15 03:20:36;;;;;;;;;;;;;;;6.46;73.36;96884.81;5068286;28;19925;-57
2023/04/15 03:23:04;;;;;;;;;;;;;;;6.42;73.63;96879.22;5072035;28;19931;-56
2023/04/15 03:25:36;;;;;;;;;;;;;;;6.35;74.11;96883.47;5070847;28;20007;-56
2023/04/15 03:28:10;;;;;;;;;;;;;;;6.48;73.46;96877.19;5079167;28;19924;-57
2023/04/15 03:30:37;;;;;;;;;;;;;;;6.44;73.75;96881.59;5089309;28;19928;-57
2023/04/15 03:33:05;;;;;;;;;;;;;;;6.44;74.06;96881.59;5071047;28;19974;-56
2023/04/15 03:35:37;;;;;;;;;;;;;;;6.53;73.54;96885.16;5067621;28;19955;-57
2023/04/15 03:38:04;;;;;;;;;;;;;;;6.42;73.68;96881.13;5091311;28;19929;-57
2023/04/15 03:40:33;;;;;;;;;;;;;;;6.39;73.83;96876.34;5084981;28;20382;-56
2023/04/15 03:43:01;;;;;;;;;;;;;;;6.38;73.98;96880.16;5091971;28;19943;-57
2023/04/15 03:45:31;;;;;;;;;;;;;;;6.43;73.90;96877.31;5088324;28;20015;-58
2023/04/15 03:47:58;;;;;;;;;;;;;;;6.49;73.93;96876.06;5085127;28;19930;-56
2023/04/15 03:50:42;;;;;;;;;;;;;;;6.43;73.85;96880.00;5084230;28;20373;-56
2023/04/15 03:53:10;;;;;;;;;;;;;;;6.59;73.14;96880.41;5076624;28;19924;-59
2023/04/15 03:55:38;;;;;;;;;;;;;;;6.44;73.37;96878.91;5072445;28;19924;-57
2023/04/15 03:58:05;;;;;;;;;;;;;;;6.32;74.21;96882.19;5089285;28;19924;-56
2023/04/15 04:00:35;;;;;;;;;;;;;;;6.33;74.06;96874.88;5079744;28;19966;-56
2023/04/15 04:03:03;;;;;;;;;;;;;;;6.48;73.85;96877.19;5082051;28;19962;-57
2023/04/15 04:05:31;;;;;;;;;;;;;;;6.54;73.47;96881.34;5097912;28;19928;-58
2023/04/15 04:07:59;;;;;;;;;;;;;;;6.48;73.94;96877.97;5088775;28;19924;-57
2023/04/15 04:10:27;;;;;;;;;;;;;;;6.53;74.09;96877.84;5091512;28;19924;-57
2023/04/15 04:12:55;;;;;;;;;;;;;;;6.66;73.23;96876.19;5086202;28;20015;-57
2023/04/15 04:15:23;;;;;;;;;;;;;;;6.57;73.35;96878.03;5081862;28;20332;-56
2023/04/15 04:17:52;;;;;;;;;;;;;;;6.53;73.68;96885.94;5072071;28;19935;-57
2023/04/15 04:20:20;;;;;;;;;;;;;;;6.64;73.02;96888.38;5090838;28;19932;-56
2023/04/15 04:22:47;;;;;;;;;;;;;;;6.78;72.54;96892.56;5088722;28;19931;-57
2023/04/15 04:25:15;;;;;;;;;;;;;;;6.57;73.12;96888.81;5083235;28;19931;-57
2023/04/15 04:27:44;;;;;;;;;;;;;;;6.79;72.51;96885.28;5083471;28;19924;-57
2023/04/15 04:30:12;;;;;;;;;;;;;;;6.71;72.27;96889.53;5083757;28;20328;-56
2023/04/15 04:32:39;;;;;;;;;;;;;;;6.77;72.29;96887.50;5082543;28;20293;-57
2023/04/15 04:35:10;;;;;;;;;;;;;;;6.77;72.14;96893.69;5084695;28;19924;-57
2023/04/15 04:37:38;;;;;;;;;;;;;;;6.80;71.74;96895.75;5070776;28;19924;-56
2023/04/15 04:40:06;;;;;;;;;;;;;;;6.89;71.67;96895.78;5084899;28;20435;-56
2023/04/15 04:42:34;;;;;;;;;;;;;;;6.85;71.33;96894.03;5074795;28;19924;-58
2023/04/15 04:45:04;;;;;;;;;;;;;;;6.78;72.16;96892.56;5081834;28;19924;-56
2023/04/15 04:47:32;;;;;;;;;;;;;;;6.64;72.83;96891.88;5088486;28;19928;-56
2023/04/15 04:50:00;;;;;;;;;;;;;;;6.74;72.45;96897.00;5086693;28;20344;-56
2023/04/15 04:52:29;;;;;;;;;;;;;;;6.79;71.99;96901.47;5080892;28;20347;-59
2023/04/15 04:54:57;;;;;;;;;;;;;;;6.75;72.10;96901.28;5035468;28;19952;-57
2023/04/15 04:57:27;;;;;;;;;;;;;;;6.89;71.80;96895.00;5037963;28;19924;-57
2023/04/15 04:59:56;;;;;;;;;;;;;;;6.87;71.62;96895.31;5042803;28;20277;-57
2023/04/15 05:02:25;;;;;;;;;;;;;;;6.93;71.67;96895.97;5040238;28;20293;-58
2023/04/15 05:04:54;;;;;;;;;;;;;;;7.03;71.25;96898.38;5048351;28;19970;-59
2023/04/15 05:07:21;;;;;;;;;;;;;;;6.96;71.21;96898.03;5052192;28;19944;-56
2023/04/15 05:09:51;;;;;;;;;;;;;;;6.93;71.27;96902.16;5051680;28;19936;-57
2023/04/15 05:12:19;;;;;;;;;;;;;;;6.83;71.84;96894.34;5025233;28;20298;-59
2023/04/15 05:14:47;;;;;;;;;;;;;;;6.88;71.40;96899.63;5047381;28;19936;-57
2023/04/15 05:17:15;;;;;;;;;;;;;;;6.87;71.92;96898.03;5042169;28;19932;-56
2023/04/15 05:19:43;;;;;;;;;;;;;;;7.10;70.96;96896.03;5046049;28;19928;-57
2023/04/15 05:22:10;;;;;;;;;;;;;;;7.21;70.39;96899.25;5047628;28;19925;-57
2023/04/15 05:24:38;;;;;;;;;;;;;;;7.07;71.20;96907.44;5045780;28;20389;-57
2023/04/15 05:27:10;;;;;;;;;;;;;;;7.05;71.21;96901.56;5037164;28;19935;-56
2023/04/15 05:29:38;;;;;;;;;;;;;;;7.07;70.91;96904.75;5045323;28;19932;-56
2023/04/15 05:32:06;;;;;;;;;;;;;;;7.23;70.48;96905.91;5044636;28;20345;-58
2023/04/15 05:34:34;;;;;;;;;;;;;;;7.03;71.12;96906.47;5041417;28;19936;-57
2023/04/15 05:37:02;;;;;;;;;;;;;;;7.21;70.76;96908.13;5044630;28;19925;-57
2023/04/15 05:39:31;;;;;;;;;;;;;;;7.16;70.86;96921.78;5038217;28;19933;-57
2023/04/15 05:41:59;;;;;;;;;;;;;;;7.21;70.75;96910.84;5037526;28;19925;-57
2023/04/15 05:44:28;;;;;;;;;;;;;;;7.05;71.17;96915.06;5028948;28;19925;-59
2023/04/15 05:46:56;;;;;;;;;;;;;;;7.23;70.39;96915.91;5039759;28;19932;-57
2023/04/15 05:49:24;;;;;;;;;;;;;;;7.26;70.35;96921.50;5022864;28;19932;-56
2023/04/15 05:51:52;;;;;;;;;;;;;;;7.26;70.31;96923.41;5032846;28;19937;-57
2023/04/15 05:54:20;;;;;;;;;;;;;;;7.24;70.90;96918.28;5048158;28;19932;-57
2023/04/15 05:56:48;;;;;;;;;;;;;;;7.29;70.51;96920.84;5060187;28;19967;-55
2023/04/15 05:59:16;;;;;;;;;;;;;;;7.28;70.63;96929.28;5054920;28;20397;-58
2023/04/15 06:01:45;;;;;;;;;;;;;;;7.35;70.62;96924.25;5055786;28;20424;-56
2023/04/15 06:04:14;;;;;;;;;;;;;;;7.43;69.85;96930.75;5060936;28;19933;-55
2023/04/15 06:06:42;;;;;;;;;;;;;;;7.32;70.64;96922.16;5065476;28;20297;-56
2023/04/15 06:09:10;;;;;;;;;;;;;;;7.20;70.85;96922.75;5079068;28;20606;-56
2023/04/15 06:11:37;;;;;;;;;;;;;;;7.43;70.25;96925.34;5085504;28;19931;-56
2023/04/15 06:14:05;;;;;;;;;;;;;;;7.43;70.80;96931.56;5080973;28;19928;-55
2023/04/15 06:16:33;;;;;;;;;;;;;;;7.34;70.01;96933.44;5087086;28;20415;-55
2023/04/15 06:19:02;;;;;;;;;;;;;;;7.32;71.39;96927.56;5081558;28;19930;-56
2023/04/15 06:21:30;;;;;;;;;;;;;;;7.48;70.71;96923.28;5080674;28;19935;-56
2023/04/15 06:23:58;;;;;;;;;;;;;;;7.49;70.46;96926.78;5086241;28;19933;-56
2023/04/15 06:26:27;;;;;;;;;;;;;;;7.44;71.00;96929.63;5070600;28;19932;-58
2023/04/15 06:28:55;;;;;;;;;;;;;;;7.46;71.03;96935.53;5085407;28;19928;-55
2023/04/15 06:31:22;;;;;;;;;;;;;;;7.63;70.43;96935.56;5079075;28;19931;-56
2023/04/15 06:33:50;;;;;;;;;;;;;;;7.69;70.20;96930.81;5085017;28;20331;-57
2023/04/15 06:36:19;;;;;;;;;;;;;;;7.69;70.12;96928.91;5078257;28;19924;-56
2023/04/15 06:38:47;;;;;;;;;;;;;;;7.77;70.50;96933.50;5079386;28;19929;-56
2023/04/15 06:41:15;;;;;;;;;;;;;;;7.69;70.21;96939.72;5084231;28;19969;-56
2023/04/15 06:43:43;;;;;;;;;;;;;;;7.79;70.13;96936.72;5085990;28;19943;-56
2023/04/15 06:46:11;;;;;;;;;;;;;;;7.94;70.21;96934.66;5075353;28;20291;-56
2023/04/15 06:48:39;;;;;;;;;;;;;;;7.87;70.28;96932.41;5068866;28;19924;-56
2023/04/15 06:51:06;;;;;;;;;;;;;;;7.91;70.74;96936.06;5088617;28;20289;-59
2023/04/15 06:53:39;;;;;;;;;;;;;;;7.95;70.64;96925.44;5071618;28;19990;-55
2023/04/15 06:56:10;;;;;;;;;;;;;;;7.97;70.82;96942.13;5080635;28;20370;-59
2023/04/15 06:58:38;;;;;;;;;;;;;;;8.04;70.12;96939.72;5065527;28;19924;-56
2023/04/15 07:01:05;;;;;;;;;;;;;;;7.90;71.00;96931.00;5064193;28;20024;-56
2023/04/15 07:03:34;;;;;;;;;;;;;;;7.96;71.56;96937.81;5068622;28;20404;-56
2023/04/15 07:06:05;;;;;;;;;;;;;;;8.16;70.45;96926.38;5063815;28;19959;-56
2023/04/15 07:08:33;;;;;;;;;;;;;;;8.18;70.45;96924.13;5072259;28;20015;-55
2023/04/15 07:11:02;;;;;;;;;;;;;;;8.32;70.46;96929.38;5058684;28;20335;-56
2023/04/15 07:13:30;;;;;;;;;;;;;;;8.27;70.36;96921.44;5063175;28;19932;-58
2023/04/15 07:16:00;;;;;;;;;;;;;;;8.37;70.48;96927.34;5066868;28;20275;-60
2023/04/15 07:18:28;;;;;;;;;;;;;;;8.38;69.94;96925.41;5069592;28;19924;-58
2023/04/15 07:20:56;;;;;;;;;;;;;;;8.50;69.33;96930.97;5059970;28;19932;-55
2023/04/15 07:23:24;;;;;;;;;;;;;;;8.44;68.47;96932.25;5065302;28;19932;-56
2023/04/15 07:25:52;;;;;;;;;;;;;;;8.56;69.99;96934.31;5064576;28;19924;-56
2023/04/15 07:28:21;;;;;;;;;;;;;;;8.67;68.71;96930.13;5067576;28;19932;-56
2023/04/15 07:30:49;;;;;;;;;;;;;;;8.79;68.12;96933.00;5061253;28;19975;-55
2023/04/15 07:33:17;;;;;;;;;;;;;;;8.80;68.18;96931.88;5066879;28;19931;-59
2023/04/15 07:35:45;;;;;;;;;;;;;;;8.89;68.80;96938.06;5066039;28;19940;-55
2023/04/15 07:38:13;;;;;;;;;;;;;;;8.92;67.79;96931.97;5068219;28;20370;-56
2023/04/15 07:40:41;;;;;;;;;;;;;;;8.93;68.20;96930.84;5056906;28;20421;-56
2023/04/15 07:43:09;;;;;;;;;;;;;;;8.92;66.80;96931.97;5072895;28;19924;-55
2023/04/15 07:45:39;;;;;;;;;;;;;;;8.94;68.01;96945.19;5076924;28;20351;-56
2023/04/15 07:48:07;;;;;;;;;;;;;;;8.95;67.23;96945.97;5049452;28;19947;-57
2023/04/15 07:50:34;;;;;;;;;;;;;;;8.96;67.04;96947.59;5071771;28;19929;-56
2023/04/15 07:53:02;;;;;;;;;;;;;;;8.96;67.27;96936.75;5069055;28;19931;-56
2023/04/15 07:55:32;;;;;;;;;;;;;;;8.91;66.47;96940.44;5064422;28;19925;-56
2023/04/15 07:58:00;;;;;;;;;;;;;;;8.82;66.61;96937.75;5065665;28;19951;-56
2023/04/15 08:00:28;;;;;;;;;;;;;;;8.83;66.86;96944.75;5055497;28;19924;-57
2023/04/15 08:02:58;;;;;;;;;;;;;;;8.88;67.07;96941.84;5066247;28;20336;-56
2023/04/15 08:05:27;;;;;;;;;;;;;;;8.75;66.83;96942.88;5068571;28;20290;-57
2023/04/15 08:07:55;;;;;;;;;;;;;;;8.58;66.46;96943.72;5064294;28;19931;-57
2023/04/15 08:10:23;;;;;;;;;;;;;;;8.57;66.93;96941.31;5065891;28;19924;-57
2023/04/15 08:12:53;;;;;;;;;;;;;;;8.59;67.65;96934.47;5070958;28;19932;-57
2023/04/15 08:15:22;;;;;;;;;;;;;;;8.54;67.89;96948.16;5058160;28;19931;-57
2023/04/15 08:17:50;;;;;;;;;;;;;;;8.61;67.98;96944.97;5066866;28;20381;-57
2023/04/15 08:20:19;;;;;;;;;;;;;;;8.60;67.72;96946.09;5079786;28;19931;-57
2023/04/15 08:22:50;;;;;;;;;;;;;;;8.56;67.66;96942.41;5060529;28;19925;-58
2023/04/15 08:25:19;;;;;;;;;;;;;;;8.47;67.52;96952.47;5060702;28;20378;-57
2023/04/15 08:27:47;;;;;;;;;;;;;;;8.50;67.97;96957.25;5066723;28;20374;-58
2023/04/15 08:30:15;;;;;;;;;;;;;;;8.41;68.71;96965.38;5069680;28;20362;-58
2023/04/15 08:32:43;;;;;;;;;;;;;;;8.35;69.04;96972.03;5060947;28;19933;-57
2023/04/15 08:35:11;;;;;;;;;;;;;;;8.33;69.26;96969.66;5069622;28;19989;-57
2023/04/15 08:37:41;;;;;;;;;;;;;;;8.23;68.60;96969.19;5061025;28;19979;-57
2023/04/15 08:40:10;;;;;;;;;;;;;;;8.19;69.40;96969.00;5064114;28;19928;-56
2023/04/15 08:42:41;;;;;;;;;;;;;;;8.17;69.30;96965.84;5065758;28;19932;-57
2023/04/15 08:45:10;;;;;;;;;;;;;;;8.10;68.91;96962.81;5055834;28;19955;-59
2023/04/15 08:47:38;;;;;;;;;;;;;;;8.10;69.04;96969.03;5063129;28;19986;-56
2023/04/15 08:50:07;;;;;;;;;;;;;;;8.01;68.74;96959.31;5062850;28;20343;-57
2023/04/15 08:52:35;;;;;;;;;;;;;;;7.96;68.74;96965.66;5066273;28;19939;-56
2023/04/15 08:55:05;;;;;;;;;;;;;;;7.95;69.92;96974.09;5065817;28;19932;-57
2023/04/15 08:57:33;;;;;;;;;;;;;;;7.93;69.67;96971.69;5070172;28;20019;-57
2023/04/15 09:00:02;;;;;;;;;;;;;;;7.98;69.77;96982.38;5065816;28;19947;-56
2023/04/15 09:02:32;;;;;;;;;;;;;;;8.00;69.56;96977.44;5056969;28;19964;-57
2023/04/15 09:05:00;;;;;;;;;;;;;;;8.03;69.92;96978.72;5055994;28;20393;-57
2023/04/15 09:07:28;;;;;;;;;;;;;;;8.01;70.02;96978.25;5055999;28;19925;-59
2023/04/15 09:09:56;;;;;;;;;;;;;;;8.10;70.11;96979.84;5058587;28;19932;-57
2023/04/15 09:12:25;;;;;;;;;;;;;;;8.08;69.85;96973.16;5067768;28;19924;-57
2023/04/15 09:14:53;;;;;;;;;;;;;;;8.12;69.68;96979.53;5068654;28;20258;-57
2023/04/15 09:17:21;;;;;;;;;;;;;;;8.16;69.99;96980.47;5062970;28;19932;-58
2023/04/15 09:19:48;;;;;;;;;;;;;;;8.26;70.26;96980.16;5065765;28;20435;-57
2023/04/15 09:22:16;;;;;;;;;;;;;;;8.30;70.37;96983.00;5061210;28;19936;-57
2023/04/15 09:24:45;;;;;;;;;;;;;;;8.39;69.86;96998.16;5062004;28;20341;-57
2023/04/15 09:27:13;;;;;;;;;;;;;;;8.44;70.20;96989.09;5055803;28;19925;-57
2023/04/15 09:29:42;;;;;;;;;;;;;;;8.40;69.91;96991.63;5061366;28;20833;-57
2023/04/15 09:32:11;;;;;;;;;;;;;;;8.51;70.23;96999.44;5055825;28;19925;-58
2023/04/15 09:34:38;;;;;;;;;;;;;;;8.55;68.46;96994.97;5053524;28;19932;-57
2023/04/15 09:37:06;;;;;;;;;;;;;;;8.53;69.63;97005.34;5052545;28;20668;-58
2023/04/15 09:39:48;;;;;;;;;;;;;;;8.50;70.79;96995.94;5055050;28;19932;-58
2023/04/15 09:42:22;;;;;;;;;;;;;;;8.48;70.40;97006.28;5061802;28;20461;-57
2023/04/15 09:44:52;;;;;;;;;;;;;;;8.22;70.20;97008.97;5059642;28;19928;-57
2023/04/15 09:47:27;;;;;;;;;;;;;;;8.20;71.19;97016.59;5057422;28;19932;-57
2023/04/15 09:49:55;;;;;;;;;;;;;;;8.17;69.86;97009.13;5064433;28;20370;-57
2023/04/15 09:52:23;;;;;;;;;;;;;;;8.08;69.50;96995.59;5066495;28;19925;-57
2023/04/15 09:54:53;;;;;;;;;;;;;;;8.05;70.84;97001.63;5071720;28;19954;-58
2023/04/15 09:57:22;;;;;;;;;;;;;;;8.01;70.83;97010.69;5065989;28;20385;-58
2023/04/15 09:59:50;;;;;;;;;;;;;;;8.04;71.26;97015.47;5060213;28;19929;-59
2023/04/15 10:02:20;;;;;;;;;;;;;;;8.06;71.38;97010.56;5045629;28;19933;-58
2023/04/15 10:04:48;;;;;;;;;;;;;;;8.05;70.74;97011.66;5059546;28;19960;-58
2023/04/15 10:07:19;;;;;;;;;;;;;;;7.99;71.59;97012.91;5060925;28;20159;-57
2023/04/15 10:09:47;;;;;;;;;;;;;;;8.08;71.12;97022.63;5060675;28;19940;-56
2023/04/15 10:12:17;;;;;;;;;;;;;;;8.07;71.08;97025.66;5059807;28;19937;-57
2023/04/15 10:14:47;;;;;;;;;;;;;;;8.06;71.11;97018.66;5063546;28;19925;-59
2023/04/15 10:17:15;;;;;;;;;;;;;;;8.04;70.65;97026.28;5063588;28;20683;-56
2023/04/15 10:19:46;;;;;;;;;;;;;;;8.02;71.33;97023.91;5070980;28;20285;-56
2023/04/15 10:22:14;;;;;;;;;;;;;;;7.94;71.47;97032.81;5062291;28;19936;-57
2023/04/15 10:24:42;;;;;;;;;;;;;;;7.96;72.50;97032.50;5064797;28;19928;-57
2023/04/15 10:27:10;;;;;;;;;;;;;;;7.99;71.42;97026.44;5061685;28;19947;-57
2023/04/15 10:29:38;;;;;;;;;;;;;;;8.07;72.36;97021.03;5052989;28;19932;-57
2023/04/15 10:32:06;;;;;;;;;;;;;;;8.18;72.00;97032.34;5048256;28;19924;-57
2023/04/15 10:34:34;;;;;;;;;;;;;;;8.40;72.01;97028.72;5059936;28;19931;-57
2023/04/15 10:37:04;;;;;;;;;;;;;;;8.42;71.05;97031.94;5063845;28;19925;-58
2023/04/15 10:39:39;;;;;;;;;;;;;;;8.49;70.64;97031.44;5060781;28;20055;-57
2023/04/15 10:42:07;;;;;;;;;;;;;;;8.17;70.14;97030.78;5062867;28;19960;-60
2023/04/15 10:44:36;;;;;;;;;;;;;;;8.18;70.99;97034.28;5066072;28;19987;-58
2023/04/15 10:47:11;;;;;;;;;;;;;;;8.31;70.58;97031.44;5064460;28;19956;-57
2023/04/15 10:49:43;;;;;;;;;;;;;;;8.43;70.51;97024.63;5063933;28;19924;-57
2023/04/15 10:52:14;;;;;;;;;;;;;;;8.56;70.01;97026.34;5063584;28;19936;-56
2023/04/15 10:54:41;;;;;;;;;;;;;;;8.65;69.03;97027.94;5068402;28;19932;-57
2023/04/15 10:57:15;;;;;;;;;;;;;;;8.95;69.71;97019.94;5059829;28;20381;-57
2023/04/15 11:00:03;;;;;;;;;;;;;;;9.17;67.95;97014.28;5058883;28;19947;-57
2023/04/15 11:02:41;;;;;;;;;;;;;;;9.10;67.85;97018.59;5060959;28;19932;-57
2023/04/15 11:05:09;;;;;;;;;;;;;;;8.94;70.04;97026.44;5063550;28;19928;-58
2023/04/15 11:07:42;;;;;;;;;;;;;;;8.76;69.09;97033.81;5064361;28;20352;-67
2023/04/15 11:10:37;;;;;;;;;;;;;;;8.65;69.69;97035.25;5058407;28;20255;-60
2023/04/15 11:13:06;;;;;;;;;;;;;;;8.58;70.94;97037.66;5052894;28;19931;-59
2023/04/15 11:15:36;;;;;;;;;;;;;;;8.50;70.81;97036.53;5064256;28;19947;-59
2023/04/15 11:18:09;;;;;;;;;;;;;;;8.40;70.96;97037.66;5065026;28;20150;-58
2023/04/15 11:20:37;;;;;;;;;;;;;;;8.36;71.42;97039.41;5066283;28;19932;-58
2023/04/15 11:23:06;;;;;;;;;;;;;;;8.29;71.14;97049.88;5060896;28;19925;-58
2023/04/15 11:25:42;;;;;;;;;;;;;;;8.28;70.33;97037.47;5061587;28;19936;-59
2023/04/15 11:28:10;;;;;;;;;;;;;;;8.23;70.93;97047.66;5060725;28;19948;-55
2023/04/15 11:30:38;;;;;;;;;;;;;;;8.17;71.19;97046.22;5057179;28;19932;-58
2023/04/15 11:33:07;;;;;;;;;;;;;;;8.10;71.42;97047.47;5059380;28;20027;-58
2023/04/15 11:35:35;;;;;;;;;;;;;;;8.16;71.90;97058.16;5048193;28;19928;-61
2023/04/15 11:38:04;;;;;;;;;;;;;;;8.17;69.60;97048.91;5057620;28;19932;-57
2023/04/15 11:40:34;;;;;;;;;;;;;;;8.28;70.21;97052.91;5059420;28;19928;-56
2023/04/15 11:43:05;;;;;;;;;;;;;;;8.55;69.16;97051.84;5058862;28;19929;-56
2023/04/15 11:45:33;;;;;;;;;;;;;;;8.77;68.37;97059.78;5061977;28;19986;-57
2023/04/15 11:48:05;;;;;;;;;;;;;;;8.75;68.09;97067.44;5055922;28;19937;-56
2023/04/15 11:50:35;;;;;;;;;;;;;;;8.62;67.83;97052.13;5058284;28;20143;-57
2023/04/15 11:53:03;;;;;;;;;;;;;;;8.55;68.50;97057.25;5063220;28;19925;-56
2023/04/15 11:55:43;;;;;;;;;;;;;;;8.65;68.63;97056.94;5058197;28;19931;-56
2023/04/15 11:58:11;;;;;;;;;;;;;;;8.61;68.56;97062.16;5063238;28;19952;-56
2023/04/15 12:00:41;;;;;;;;;;;;;;;8.55;68.56;97058.03;5056720;28;20327;-56
2023/04/15 12:03:12;;;;;;;;;;;;;;;8.55;67.44;97060.75;5063596;28;19924;-57
2023/04/15 12:05:59;;;;;;;;;;;;;;;8.54;67.29;97061.06;5056079;28;19971;-56
2023/04/15 12:08:34;;;;;;;;;;;;;;;8.63;67.47;97064.59;5060214;28;19924;-58
2023/04/15 12:11:03;;;;;;;;;;;;;;;8.71;67.79;97066.47;5062031;28;19940;-60
2023/04/15 12:13:31;;;;;;;;;;;;;;;8.66;68.28;97072.06;5056676;28;20653;-59
2023/04/15 12:15:59;;;;;;;;;;;;;;;8.59;67.74;97074.44;5065920;28;19939;-59
2023/04/15 12:18:27;;;;;;;;;;;;;;;8.52;68.26;97074.94;5061724;28;20377;-61
2023/04/15 12:20:55;;;;;;;;;;;;;;;8.40;68.70;97078.25;5057163;28;19982;-59
2023/04/15 12:23:23;;;;;;;;;;;;;;;8.40;68.91;97083.66;5055024;28;19947;-57
2023/04/15 12:25:51;;;;;;;;;;;;;;;8.48;68.64;97082.09;5066462;28;19935;-57
2023/04/15 12:28:20;;;;;;;;;;;;;;;8.46;68.58;97087.00;5059072;28;19939;-56
2023/04/15 12:30:49;;;;;;;;;;;;;;;8.57;68.51;97088.28;5063395;28;20294;-58
2023/04/15 12:33:20;;;;;;;;;;;;;;;8.61;67.79;97100.06;5056980;28;19964;-57
2023/04/15 12:35:48;;;;;;;;;;;;;;;8.69;67.86;97093.09;5056320;28;20439;-57
2023/04/15 12:38:15;;;;;;;;;;;;;;;8.74;67.03;97095.63;5057842;28;19940;-58
2023/04/15 12:40:43;;;;;;;;;;;;;;;8.84;66.63;97098.03;5059553;28;19929;-57
2023/04/15 12:43:11;;;;;;;;;;;;;;;8.82;66.16;97100.25;5053771;28;20385;-61
2023/04/15 12:45:40;;;;;;;;;;;;;;;8.96;65.65;97110.13;5055690;28;19924;-57
2023/04/15 12:48:08;;;;;;;;;;;;;;;8.98;66.19;97107.88;5055550;28;19928;-56
2023/04/15 12:50:36;;;;;;;;;;;;;;;8.82;65.88;97108.38;5061970;28;19924;-58
2023/04/15 12:53:04;;;;;;;;;;;;;;;8.84;66.79;97110.75;5053608;28;20005;-57
2023/04/15 12:55:32;;;;;;;;;;;;;;;8.76;66.69;97114.28;5052327;28;19931;-58
2023/04/15 12:58:01;;;;;;;;;;;;;;;8.64;66.71;97109.50;5052287;28;20015;-56
2023/04/15 13:00:29;;;;;;;;;;;;;;;8.65;67.20;97119.19;5054069;28;19940;-57
2023/04/15 13:03:00;;;;;;;;;;;;;;;8.70;67.09;97121.75;5062878;28;20385;-57
2023/04/15 13:05:29;;;;;;;;;;;;;;;8.77;67.77;97122.06;5064095;28;19925;-57
2023/04/15 13:07:57;;;;;;;;;;;;;;;8.79;66.92;97111.72;5061865;28;19932;-57